Nearby METAR Reports

 

KTEB - Teterboro, New Jersey, USA
Distance from station: ENE 2mi, 4km
Updated: 08/03/2020 5:51am
Clear
Clear
 Wind from WSW
Wind: WSW 6 mph , 9 km/h
Temperature: 77°F , 25°C
Dew Point: 64°F , 18°C
Humidity: 65%
Barometer: 29.95 inHg , 1014.2 hPa
Clouds: Clear
Visibility: 10 miles , 16 km
2020/08/03 09:51 KTEB 030951Z 24005KT 10SM CLR 25/18 A2995 RMK AO2 SLP141 T02500183
KNYC - Nyc/Central Park, New York, USA
Distance from station: SE 8mi, 13km
Updated: 08/03/2020 4:51am
Clear
Clear
 Wind from WSW
Wind: WSW 7 mph , 11 km/h
Temperature: 81°F , 27°C
Heat Index: 83°F , 28°C
Dew Point: 64°F , 18°C
Humidity: 58%
Barometer: 29.97 inHg , 1014.9 hPa
Clouds: Clear
Visibility: 10 miles , 16 km
2020/08/03 08:51 KNYC 030851Z AUTO 24006KT 10SM CLR 27/18 A2997 RMK AO2 SLP138 T02670178 51018 $
 
KCDW - Caldwell, New Jersey, USA
Distance from station: WNW 10mi, 17km
Updated: 08/03/2020 4:53am
Clear
Clear
 Wind from calm
Wind: Calm
Temperature: 79°F , 26°C
Dew Point: 66°F , 19°C
Humidity: 65%
Barometer: 29.95 inHg , 1014.2 hPa
Clouds: Clear
Visibility: 10 miles , 16 km
2020/08/03 08:53 KCDW 030853Z AUTO 00000KT 10SM CLR 26/19 A2995 RMK AO2 SLP145 T02610189 53016 $
KLGA - Nyc/La Guardia, New York, USA
Distance from station: ESE 12mi, 19km
Updated: 08/03/2020 5:51am
Mostly cloudy
Mostly cloudy
 Wind from WSW
Wind: WSW 12 mph , 19 km/h
Temperature: 82°F , 28°C
Heat Index: 82°F , 28°C
Dew Point: 59°F , 15°C
Humidity: 45%
Barometer: 29.95 inHg , 1014.2 hPa
Clouds: Mostly cloudy
Visibility: 10 miles , 16 km
Cloud details: Few Clouds 13000 ft
Partly cloudy 19000 ft
Mostly cloudy 25000 ft
2020/08/03 09:51 KLGA 030951Z 25010KT 10SM FEW130 SCT190 BKN250 28/15 A2995 RMK AO2 SLP143 T02830150 $
 
KEWR - Newark, New Jersey, USA
Distance from station: SSW 12mi, 20km
Updated: 08/03/2020 5:51am
Mostly cloudy
Mostly cloudy
 Wind from WSW
Wind: WSW 8 mph , 13 km/h
Temperature: 79°F , 26°C
Dew Point: 63°F , 17°C
Humidity: 58%
Barometer: 29.96 inHg , 1014.6 hPa
Clouds: Mostly cloudy
Visibility: 10 miles , 16 km
Cloud details: Few Clouds 12000 ft
Mostly cloudy 18000 ft
Mostly cloudy 25000 ft
2020/08/03 09:51 KEWR 030951Z 24007KT 10SM FEW120 BKN180 BKN250 26/17 A2996 RMK AO2 SLP146 T02560172
KMMU - Morristown Muni, New Jersey, USA
Distance from station: WSW 18mi, 29km
Updated: 08/03/2020 5:35am
Clear
Clear
 Wind from SW
Wind: SW 5 mph , 7 km/h
Temperature: 73°F , 23°C
Dew Point: 63°F , 17°C
Humidity: 69%
Barometer: 29.97 inHg , 1014.9 hPa
Clouds: Clear
Visibility: 10 miles , 16 km
2020/08/03 09:35 KMMU 030935Z AUTO 23004KT 10SM CLR 23/17 A2997 RMK AO2
 
KJFK - Nyc/Jfk Arpt, New York, USA
Distance from station: SE 23mi, 36km
Updated: 08/03/2020 5:51am
Mostly cloudy
Mostly cloudy
 Wind from W
Wind: W 10 mph , 17 km/h
Temperature: 79°F , 26°C
Dew Point: 72°F , 22°C
Humidity: 79%
Barometer: 29.97 inHg , 1014.9 hPa
Clouds: Mostly cloudy
Visibility: 10 miles , 16 km
Cloud details: Few Clouds 12000 ft
Mostly cloudy 25000 ft
2020/08/03 09:51 KJFK 030951Z 26009KT 10SM FEW120 BKN250 26/22 A2997 RMK AO2 SLP149 T02560222 $
KHPN - White Plains, New York, USA
Distance from station: NE 25mi, 40km
Updated: 08/03/2020 4:56am
Few Clouds
Few Clouds
 Wind from W
Wind: W 5 mph , 7 km/h
Temperature: 75°F , 24°C
Dew Point: 64°F , 18°C
Humidity: 69%
Barometer: 29.94 inHg , 1013.9 hPa
Clouds: Few Clouds
Visibility: 10 miles , 16 km
Cloud details: Few Clouds 7000 ft
2020/08/03 08:56 KHPN 030856Z 27004KT 10SM FEW070 24/18 A2994 RMK AO2 SLP131 T02440183 53015 $
 
KSMQ - Somerville, New Jersey, USA
Distance from station: WSW 34mi, 55km
Updated: 08/03/2020 4:53am
Clear
Clear
 Wind from calm
Wind: Calm
Temperature: 75°F , 24°C
Dew Point: 64°F , 18°C
Humidity: 69%
Barometer: 29.94 inHg , 1013.9 hPa
Clouds: Clear
Visibility: 10 miles , 16 km
2020/08/03 08:53 KSMQ 030853Z AUTO 00000KT 10SM CLR 24/18 A2994 RMK AO2 SLP135 T02440178 53016
K12N - Andover, New Jersey, USA
Distance from station: WNW 36mi, 57km
Updated: 08/03/2020 4:54am

 Wind from calm
Wind: Calm
Temperature: 70°F , 21°C
Dew Point: 64°F , 18°C
Humidity: 83%
Barometer: 29.98 inHg , 1015.2 hPa
2020/08/03 08:54 K12N 030854Z AUTO 00000KT 21/18 A2998 RMK AO1 SLP140 T02110178 53016
 
KFRG - Farmingdale, New York, USA
Distance from station: ESE 36mi, 58km
Updated: 08/03/2020 4:53am
Clear
Clear
 Wind from SW
Wind: SW 8 mph , 13 km/h
Temperature: 81°F , 27°C
Heat Index: 86°F , 30°C
Dew Point: 73°F , 23°C
Humidity: 79%
Barometer: 29.94 inHg , 1013.9 hPa
Clouds: Clear
Visibility: 10 miles , 16 km
2020/08/03 08:53 KFRG 030853Z AUTO 22007KT 10SM CLR 27/23 A2994 RMK AO2 SLP139 T02670228 53016
KFWN - Sussex, New Jersey, USA
Distance from station: NW 37mi, 60km
Updated: 08/03/2020 4:53am
Clear
Clear
 Wind from SSW
Wind: SSW 5 mph , 7 km/h
Temperature: 70°F , 21°C
Dew Point: 68°F , 20°C
Humidity: 94%
Barometer: 29.95 inHg , 1014.2 hPa
Clouds: Clear
Visibility: 10 miles , 16 km
2020/08/03 08:53 KFWN 030853Z AUTO 20004KT 10SM CLR 21/20 A2995 RMK AO2 SLP138 T02110200 53013
 
KSWF - Newburgh/Stewart, New York, USA
Distance from station: 0 45mi, 72km
Updated: 08/03/2020 5:45am
Partly cloudy
Partly cloudy
 Wind from SW
Wind: SW 8 mph , 13 km/h
Temperature: 72°F , 22°C
Dew Point: 66°F , 19°C
Humidity: 83%
Barometer: 29.96 inHg , 1014.6 hPa
Clouds: Partly cloudy
Visibility: 10 miles , 16 km
Cloud details: Partly cloudy 12000 ft
2020/08/03 09:45 KSWF 030945Z 22007KT 10SM SCT120 22/19 A2996
KMGJ - Montgomery, New York, USA
Distance from station: NNW 47mi, 75km
Updated: 08/03/2020 4:54am
Clear
Clear
 Wind from WSW
Wind: WSW 8 mph , 13 km/h
Temperature: 70°F , 21°C
Dew Point: 68°F , 20°C
Humidity: 94%
Barometer: 29.93 inHg , 1013.5 hPa
Clouds: Clear
Visibility: 10 miles , 16 km
2020/08/03 08:54 KMGJ 030854Z AUTO 24007KT 10SM CLR 21/20 A2993 RMK AO2 SLP131 T02060200 53012
 
KBLM - Belmar/Farmdale, New Jersey, USA
Distance from station: S 47mi, 76km
Updated: 08/03/2020 4:56am
Clear
Clear
 Wind from S
Wind: S 3 mph , 6 km/h
Temperature: 75°F , 24°C
Barometer: 29.98 inHg , 1015.2 hPa
Clouds: Clear
Visibility: 10 miles , 16 km
2020/08/03 08:56 KBLM 030856Z AUTO 19003KT 10SM CLR 24/ A2998 RMK AO2 SLP149 60000 T0239 53017
KDXR - Danbury, Connecticut, USA
Distance from station: NE 47mi, 76km
Updated: 08/03/2020 4:53am
Clear
Clear
 Wind from WSW
Wind: WSW 5 mph , 7 km/h
Temperature: 75°F , 24°C
Dew Point: 64°F , 18°C
Humidity: 69%
Barometer: 29.95 inHg , 1014.2 hPa
Clouds: Clear
Visibility: 10 miles , 16 km
2020/08/03 08:53 KDXR 030853Z AUTO 24004KT 10SM CLR 24/18 A2995 RMK AO2 SLP136 T02390178 53014
 
KISP - Islip, New York, USA
Distance from station: E 52mi, 83km
Updated: 08/03/2020 4:56am
Clear
Clear
 Wind from SW
Wind: SW 8 mph , 13 km/h
Temperature: 77°F , 25°C
Dew Point: 73°F , 23°C
Humidity: 89%
Barometer: 29.94 inHg , 1013.9 hPa
Clouds: Clear
Visibility: 10 miles , 16 km
2020/08/03 08:56 KISP 030856Z AUTO 23007KT 10SM CLR 25/23 A2994 RMK AO2 SLP138 T02500233 53016
KBDR - Bridgeport, Connecticut, USA
Distance from station: ENE 54mi, 87km
Updated: 08/03/2020 4:52am
Clear
Clear
 Wind from SW
Wind: SW 6 mph , 9 km/h
Temperature: 79°F , 26°C
Dew Point: 73°F , 23°C
Humidity: 84%
Barometer: 29.92 inHg , 1013.2 hPa
Clouds: Clear
Visibility: 10 miles , 16 km
2020/08/03 08:52 KBDR 030852Z AUTO 23005KT 10SM CLR 26/23 A2992 RMK AO2 SLP131 T02560233 53014
 
KTTN - Trenton, New Jersey, USA
Distance from station: SW 55mi, 88km
Updated: 08/03/2020 4:53am
Clear
Clear
 Wind from WSW
Wind: WSW 5 mph , 7 km/h
Temperature: 77°F , 25°C
Dew Point: 63°F , 17°C
Humidity: 61%
Barometer: 29.96 inHg , 1014.6 hPa
Clouds: Clear
Visibility: 10 miles , 16 km
2020/08/03 08:53 KTTN 030853Z AUTO 25004KT 10SM CLR 25/17 A2996 RMK AO2 SLP137 T02500172 53015
KPOU - Poughkeepsie, New York, USA
Distance from station: N 55mi, 89km
Updated: 08/03/2020 4:53am
Clear
Clear
 Wind from SW
Wind: SW 8 mph , 13 km/h
Temperature: 75°F , 24°C
Dew Point: 64°F , 18°C
Humidity: 69%
Barometer: 29.91 inHg , 1012.9 hPa
Clouds: Clear
Visibility: 10 miles , 16 km
2020/08/03 08:53 KPOU 030853Z 23007KT 10SM CLR 24/18 A2991 RMK AO2 SLP123 T02440183 53012
 
KNEL - Lakehurst Nas, New Jersey, USA
Distance from station: SSW 59mi, 95km
Updated: 08/03/2020 5:00am
Clear
Clear
 
Barometer: 29.96 inHg , 1014.6 hPa
Clouds: Clear
Visibility: 10 miles , 16 km
2020/08/03 09:00 KNEL 030900Z AUTO 10SM CLR A2996 RMK AO2 SLPNO 60000 53010 $
KWRI - Wrightst/Mcguire, New Jersey, USA
Distance from station: SSW 63mi, 102km
Updated: 08/03/2020 4:56am
Clear
Clear
 Wind from SW
Wind: SW 7 mph , 11 km/h
Temperature: 75°F , 24°C
Dew Point: 72°F , 22°C
Humidity: 89%
Barometer: 29.97 inHg , 1014.9 hPa
Clouds: Clear
Visibility: 10 miles , 16 km
2020/08/03 08:56 KWRI 030856Z AUTO 23006KT 10SM CLR 24/22 A2997 RMK AO2 SLP147 T02390219 52016 $
 
KHWV - Shirley, New York, USA
Distance from station: E 64mi, 103km
Updated: 08/03/2020 4:56am
Clear
Clear
 Wind from SW
Wind: SW 8 mph , 13 km/h
Temperature: 79°F , 26°C
Dew Point: 72°F , 22°C
Humidity: 79%
Barometer: 29.95 inHg , 1014.2 hPa
Clouds: Clear
Visibility: 10 miles , 16 km
2020/08/03 08:56 KHWV 030856Z AUTO 22007KT 10SM CLR 26/22 A2995 RMK AO2 SLP140 T02610222 53014 $
KMJX - Toms River, New Jersey, USA
Distance from station: S 64mi, 104km
Updated: 08/03/2020 4:56am
Clear
Clear
 Wind from SW
Wind: SW 7 mph , 11 km/h
Temperature: 73°F , 23°C
Dew Point: 72°F , 22°C
Humidity: 94%
Barometer: 29.98 inHg , 1015.2 hPa
Clouds: Clear
Visibility: 10 miles , 16 km
2020/08/03 08:56 KMJX 030856Z AUTO 22006KT 10SM CLR 23/22 A2998 RMK AO2 SLP154 T02330222 53017
 
KDYL - Doylestown, Pennsylvania, USA
Distance from station: SW 65mi, 104km
Updated: 08/03/2020 4:54am
Clear
Clear
 Wind from W
Wind: W 3 mph , 6 km/h
Temperature: 77°F , 25°C
Dew Point: 61°F , 16°C
Humidity: 57%
Barometer: 29.97 inHg , 1014.9 hPa
Clouds: Clear
Visibility: 10 miles , 16 km
2020/08/03 08:54 KDYL 030854Z AUTO 26003KT 10SM CLR 25/16 A2997 RMK AO2 SLP142 T02500161 53015
KOXC - Oxford/Waterbury, Connecticut, USA
Distance from station: NE 65mi, 105km
Updated: 08/03/2020 5:51am
Clear
Clear
 Wind from WSW
Wind: WSW 3 mph , 6 km/h
Temperature: 73°F , 23°C
Dew Point: 66°F , 19°C
Humidity: 78%
Barometer: 29.97 inHg , 1014.9 hPa
Clouds: Clear
Visibility: 10 miles , 16 km
2020/08/03 09:51 KOXC 030951Z AUTO 25003KT 10SM CLR 23/19 A2997 RMK AO2 SLP154 T02280189
 
KMSV - Monticello, New York, USA
Distance from station: NNW 69mi, 111km
Updated: 08/03/2020 4:56am
Clear
Clear
 Wind from W
Wind: W 7 mph , 11 km/h
Temperature: 66°F , 19°C
Dew Point: 61°F , 16°C
Humidity: 83%
Barometer: 29.99 inHg , 1015.6 hPa
Clouds: Clear
Visibility: 10 miles , 16 km
2020/08/03 08:56 KMSV 030856Z AUTO 27006KT 10SM CLR 19/16 A2999 RMK AO2 SLP144 T01940156 53010
KHVN - New Haven/Tweed, Connecticut, USA
Distance from station: ENE 70mi, 112km
Updated: 08/03/2020 4:53am
Clear
Clear
 Wind from SW
Wind: SW 6 mph , 9 km/h
Temperature: 81°F , 27°C
Heat Index: 87°F , 31°C
Dew Point: 75°F , 24°C
Humidity: 84%
Barometer: 29.92 inHg , 1013.2 hPa
Clouds: Clear
Visibility: 10 miles , 16 km
2020/08/03 08:53 KHVN 030853Z AUTO 22005KT 10SM CLR 27/24 A2992 RMK AO2 SLP130 T02670239 53011
 
KMPO - Mt. Pocono, Pennsylvania, USA
Distance from station: WNW 70mi, 113km
Updated: 08/03/2020 4:53am
Clear
Clear
 Wind from W
Wind: W 13 mph , 20 km/h
Temperature: 64°F , 18°C
Dew Point: 59°F , 15°C
Humidity: 83%
Barometer: 30.02 inHg , 1016.6 hPa
Clouds: Clear
Visibility: 10 miles , 16 km
2020/08/03 08:53 KMPO 030853Z AUTO 28011KT 10SM CLR 18/15 A3002 RMK AO2 SLP151 T01780150 53011 $
KPNE - Philadelphia/Ne, Pennsylvania, USA
Distance from station: SW 72mi, 116km
Updated: 08/03/2020 4:54am
Clear
Clear
 Wind from SW
Wind: SW 3 mph , 6 km/h
Temperature: 77°F , 25°C
Dew Point: 66°F , 19°C
Humidity: 69%
Barometer: 29.98 inHg , 1015.2 hPa
Clouds: Clear
Visibility: 10 miles , 16 km
2020/08/03 08:54 KPNE 030854Z AUTO 23003KT 10SM CLR 25/19 A2998 RMK AO2 SLP151 T02500194 53014 $
 
KABE - Allentown, Pennsylvania, USA
Distance from station: W 73mi, 117km
Updated: 08/03/2020 5:51am
Clear
Clear
 Wind from SW
Wind: SW 7 mph , 11 km/h
Temperature: 70°F , 21°C
Dew Point: 63°F , 17°C
Humidity: 78%
Barometer: 30.00 inHg , 1015.9 hPa
Clouds: Clear
Visibility: 10 miles , 16 km
2020/08/03 09:51 KABE 030951Z 23006KT 10SM CLR 21/17 A3000 RMK AO2 SLP154 T02110167
KUKT - Quakertown Arp, Pennsylvania, USA
Distance from station: WSW 74mi, 119km
Updated: 08/03/2020 5:35am
Few Clouds
Few Clouds
 Wind from calm
Wind: Calm
Temperature: 73°F , 23°C
Dew Point: 63°F , 17°C
Humidity: 69%
Barometer: 30.01 inHg , 1016.3 hPa
Clouds: Few Clouds
Visibility: 10 miles , 16 km
Cloud details: Few Clouds 7500 ft
2020/08/03 09:35 KUKT 030935Z AUTO 00000KT 10SM FEW075 23/17 A3001 RMK A01
 
KVAY - Mount Holly, New Jersey, USA
Distance from station: SSW 75mi, 120km
Updated: 08/03/2020 4:54am
Clear
Clear
 Wind from SW
Wind: SW 5 mph , 7 km/h
Temperature: 79°F , 26°C
Dew Point: 72°F , 22°C
Humidity: 79%
Barometer: 29.97 inHg , 1014.9 hPa
Clouds: Clear
Visibility: 10 miles , 16 km
2020/08/03 08:54 KVAY 030854Z AUTO 23004KT 10SM CLR 26/22 A2997 RMK AO2 SLP146 T02610217 53014 $
KXLL - Allentown Queen, Pennsylvania, USA
Distance from station: WSW 76mi, 122km
Updated: 08/03/2020 5:35am
Clear
Clear
 Wind from SW
Wind: SW 7 mph , 11 km/h
Temperature: 72°F , 22°C
Dew Point: 63°F , 17°C
Humidity: 73%
Barometer: 30.01 inHg , 1016.3 hPa
Clouds: Clear
Visibility: 10 miles , 16 km
2020/08/03 09:35 KXLL 030935Z AUTO 22006KT 10SM CLR 22/17 A3001 RMK AO2
 
KFOK - Westhampton Beac, New York, USA
Distance from station: E 77mi, 124km
Updated: 08/03/2020 4:53am
Clear
Clear
 Wind from SW
Wind: SW 14 mph , 22 km/h
Temperature: 77°F , 25°C
Dew Point: 73°F , 23°C
Humidity: 89%
Barometer: 29.96 inHg , 1014.6 hPa
Clouds: Clear
Visibility: 10 miles , 16 km
2020/08/03 08:53 KFOK 030853Z AUTO 23012KT 10SM CLR 25/23 A2996 RMK AO2 SLP144 T02500228 53013
KLOM - Philly Wings F, Pennsylvania, USA
Distance from station: SW 79mi, 128km
Updated: 08/03/2020 5:35am
Mostly cloudy
Mostly cloudy
 Wind from W
Wind: W 7 mph , 11 km/h
Temperature: 75°F , 24°C
Dew Point: 64°F , 18°C
Humidity: 69%
Barometer: 30.01 inHg , 1016.3 hPa
Clouds: Mostly cloudy
Visibility: 10 miles , 16 km
Cloud details: Mostly cloudy 7500 ft
2020/08/03 09:35 KLOM 030935Z AUTO 28006KT 10SM BKN075 24/18 A3001 RMK AO2 T02430178
 
KMMK - Meriden, Connecticut, USA
Distance from station: NE 80mi, 128km
Updated: 08/03/2020 4:53am
Clear
Clear
 Wind from S
Wind: S 3 mph , 6 km/h
Temperature: 75°F , 24°C
Dew Point: 73°F , 23°C
Humidity: 94%
Barometer: 29.91 inHg , 1012.9 hPa
Clouds: Clear
Visibility: 10 miles , 16 km
2020/08/03 08:53 KMMK 030853Z AUTO 17003KT 10SM CLR 24/23 A2991 RMK AO2 SLP126 T02440228 53011
KPTW - Pottstown, Pennsylvania, USA
Distance from station: WSW 88mi, 141km
Updated: 08/03/2020 4:54am
Clear
Clear
 Wind from varies
Wind: varies 6 mph , 9 km/h, Gust: 17 mph , 28 km/h
Temperature: 73°F , 23°C
Dew Point: 61°F , 16°C
Humidity: 65%
Barometer: 30.00 inHg , 1015.9 hPa
Clouds: Clear
Visibility: 10 miles , 16 km
2020/08/03 08:54 KPTW 030854Z AUTO VRB05G15KT 10SM CLR 23/16 A3000 RMK AO2 SLP154 T02330161 53016
 
KSNC - Chester, Connecticut, USA
Distance from station: ENE 90mi, 146km
Updated: 08/03/2020 4:35am
NOT Current
Clear
Clear
 Wind from calm
Wind: Calm
Temperature: 77°F , 25°C
Dew Point: 75°F , 24°C
Humidity: 94%
Barometer: 29.93 inHg , 1013.5 hPa
Clouds: Clear
Visibility: 8 miles , 13 km
2020/08/03 08:35 KSNC 030835Z AUTO 00000KT 8SM CLR 25/24 A2993 RMK AO2
KPHL - Philadelphia, Pennsylvania, USA
Distance from station: SW 91mi, 146km
Updated: 08/03/2020 4:54am
Overcast
Overcast
 Wind from WSW
Wind: WSW 10 mph , 17 km/h
Temperature: 81°F , 27°C
Heat Index: 83°F , 28°C
Dew Point: 66°F , 19°C
Humidity: 62%
Barometer: 29.98 inHg , 1015.2 hPa
Clouds: Overcast
Visibility: 10 miles , 16 km
Cloud details: Mostly cloudy 8000 ft
Mostly cloudy 16000 ft
Overcast 23000 ft
2020/08/03 08:54 KPHL 030854Z 25009KT 10SM BKN080 BKN160 OVC230 27/19 A2998 RMK AO2 SLP150 T02670189 53014 $
 
KAVP - Avoca/Wilkes B., Pennsylvania, USA
Distance from station: WNW 91mi, 147km
Updated: 08/03/2020 4:54am
Mostly cloudy
Mostly cloudy
 Wind from SSW
Wind: SSW 5 mph , 7 km/h
Temperature: 72°F , 22°C
Dew Point: 61°F , 16°C
Humidity: 69%
Barometer: 29.99 inHg , 1015.6 hPa
Clouds: Mostly cloudy
Visibility: 10 miles , 16 km
Cloud details: Mostly cloudy 3300 ft
2020/08/03 08:54 KAVP 030854Z 21004KT 10SM BKN033 22/16 A2999 RMK AO2 SLP143 T02220161 53015
KHFD - Hartford/Brainar, Connecticut, USA
Distance from station: NE 96mi, 155km
Updated: 08/03/2020 4:53am
Clear
Clear
 Wind from S
Wind: S 8 mph , 13 km/h
Temperature: 79°F , 26°C
Dew Point: 73°F , 23°C
Humidity: 84%
Barometer: 29.89 inHg , 1012.2 hPa
Clouds: Clear
Visibility: 10 miles , 16 km
2020/08/03 08:53 KHFD 030853Z AUTO 19007KT 10SM CLR 26/23 A2989 RMK AO2 SLP122 T02610233 53011
 
KHTO - East Hampton, New York, USA
Distance from station: E 96mi, 155km
Updated: 08/03/2020 5:35am
Clear
Clear
 Wind from SW
Wind: SW 7 mph , 11 km/h
Temperature: 75°F , 24°C
Dew Point: 72°F , 22°C
Humidity: 89%
Barometer: 29.95 inHg , 1014.2 hPa
Clouds: Clear
Visibility: 10 miles , 16 km
2020/08/03 09:35 KHTO 030935Z AUTO 23006KT 10SM CLR 24/22 A2995 RMK AO2 T02410223
KACY - Atlantic City, New Jersey, USA
Distance from station: SSW 99mi, 160km
Updated: 08/03/2020 4:54am
Clear
Clear
 Wind from WSW
Wind: WSW 7 mph , 11 km/h
Temperature: 81°F , 27°C
Heat Index: 86°F , 30°C
Dew Point: 73°F , 23°C
Humidity: 79%
Barometer: 29.98 inHg , 1015.2 hPa
Clouds: Clear
Visibility: 10 miles , 16 km
2020/08/03 08:54 KACY 030854Z 25006KT 10SM CLR 27/23 A2998 RMK AO2 SLP151 T02670228 52014 $